»·PEaware :: N46AN KBFL-KMHV

N46AN :: KBFL-KMHV

FLIGHT INFORMATION

Flight Status: Arrived
Operator: Privately registered:
United States
More flights under this callsign
Pilot: Carson T. (20437)
Aircraft: CESSNA 172 SKYHAWK
(C172)
More flights by this aircraft type
Origin: KBFL Meadows
United States
Destination: KMHV Mojave
United States
More flights between these airports :: More routes between these airports
Route: +
File this flight plan on PilotEdge
Remarks:
Altitude:
(Current/Filed)
7,500ft
Speed:
(Current/Filed)
120kts
Departed: 15-Sep-18 12:30 PM
Arrived: 15-Sep-18 01:03 PM
Distance/Time
Traveled:
50nm/0:33
Distance/Time
To Go:
Arrived

Flight Plot

Page will automatically refresh every two minutes.


Map Options




Map Legend


Flown Route
Filed Route
Departure Airport
Arrival Airport
Navaid (VOR, NDB)
Fix

Horizontal Profiles

Position Reports

Time Latitude Longitude Heading Altitude Ground
Speed
15-Sep-18 12:15 35.433765 -119.050667 45 510ft 0kts
15-Sep-18 12:16 35.433765 -119.050667 45 510ft 0kts
15-Sep-18 12:17 35.433765 -119.050667 45 510ft 0kts
15-Sep-18 12:18 35.433765 -119.050667 45 510ft 0kts
15-Sep-18 12:19 35.433765 -119.050667 45 510ft 0kts
15-Sep-18 12:20 35.433765 -119.050667 45 510ft 0kts
15-Sep-18 12:21 35.433765 -119.050667 45 510ft 0kts
15-Sep-18 12:22 35.433765 -119.050667 45 510ft 0kts
15-Sep-18 12:23 35.433561 -119.051011 194 510ft 6kts
15-Sep-18 12:24 35.432167 -119.051299 218 510ft 5kts
15-Sep-18 12:25 35.430520 -119.049786 135 510ft 10kts
15-Sep-18 12:26 35.428818 -119.047757 136 510ft 6kts
15-Sep-18 12:27 35.427638 -119.046369 132 510ft 0kts
15-Sep-18 12:28 35.426094 -119.045549 229 510ft 3kts
15-Sep-18 12:29 35.426040 -119.045625 228 510ft 0kts
15-Sep-18 12:30 35.426040 -119.045626 228 510ft 0kts
15-Sep-18 12:31 35.425796 -119.045967 231 510ft 12kts
15-Sep-18 12:32 35.435891 -119.058571 311 647ft 87kts
15-Sep-18 12:33 35.453507 -119.080933 323 1164ft 94kts
15-Sep-18 12:34 35.460925 -119.060689 135 1579ft 99kts
15-Sep-18 12:35 35.444698 -119.040751 138 1944ft 99kts
15-Sep-18 12:36 35.426712 -119.009322 124 2488ft 95kts
15-Sep-18 12:37 35.416512 -118.985144 118 2823ft 96kts
15-Sep-18 12:38 35.403297 -118.951497 117 3252ft 95kts
15-Sep-18 12:39 35.394081 -118.927695 116 3602ft 88kts
15-Sep-18 12:40 35.381543 -118.895594 118 4107ft 90kts
15-Sep-18 12:41 35.369984 -118.868063 121 4562ft 91kts
15-Sep-18 12:42 35.360394 -118.844944 118 4917ft 92kts
15-Sep-18 12:43 35.349378 -118.816043 119 5285ft 97kts
15-Sep-18 12:44 35.337913 -118.784357 118 5542ft 106kts
15-Sep-18 12:45 35.323750 -118.749022 121 5505ft 123kts
15-Sep-18 12:46 35.307401 -118.712010 122 5499ft 123kts
15-Sep-18 12:47 35.290975 -118.675186 122 5499ft 123kts
15-Sep-18 12:48 35.274524 -118.638312 122 5500ft 123kts
15-Sep-18 12:49 35.258786 -118.600991 121 5502ft 123kts
15-Sep-18 12:50 35.240814 -118.565609 127 5499ft 122kts
15-Sep-18 12:51 35.218866 -118.534422 136 5500ft 121kts
15-Sep-18 12:52 35.196198 -118.503868 136 5500ft 121kts
15-Sep-18 12:53 35.174089 -118.473955 136 5500ft 121kts
15-Sep-18 12:54 35.152883 -118.441697 130 5500ft 122kts
15-Sep-18 12:55 35.132901 -118.408266 131 5500ft 122kts
15-Sep-18 12:56 35.119042 -118.370139 108 5500ft 125kts
15-Sep-18 12:57 35.108752 -118.329702 121 5501ft 123kts
15-Sep-18 12:58 35.095422 -118.290974 110 5500ft 125kts
15-Sep-18 12:59 35.085897 -118.252564 110 5476ft 100kts
15-Sep-18 13:00 35.080226 -118.219588 105 5240ft 105kts
15-Sep-18 13:01 35.073081 -118.184602 107 4642ft 104kts
15-Sep-18 13:02 35.067895 -118.148965 95 3703ft 103kts
15-Sep-18 13:03 35.061959 -118.123120 180 3159ft 74kts
15-Sep-18 13:04 35.059161 -118.143345 268 2807ft 62kts
15-Sep-18 13:05 35.058694 -118.150098 133 2794ft 0kts
15-Sep-18 13:06 35.058185 -118.149464 143 2794ft 8kts
15-Sep-18 13:07 35.057280 -118.151939 190 2794ft 6kts
15-Sep-18 13:08 35.056942 -118.152739 268 2794ft 0kts
15-Sep-18 13:09 35.056942 -118.152740 268 2794ft 0kts
15-Sep-18 13:10 35.056942 -118.152740 268 2794ft 0kts
15-Sep-18 13:11 35.056942 -118.152740 268 2794ft 0kts
15-Sep-18 13:12 35.056942 -118.152740 268 2794ft 0kts
15-Sep-18 13:13 35.056942 -118.152740 268 2794ft 0kts
15-Sep-18 13:14 35.056942 -118.152740 268 2794ft 0kts
15-Sep-18 13:15 35.056942 -118.152740 268 2794ft 0kts
15-Sep-18 13:16 35.056942 -118.152740 268 2794ft 0kts
15-Sep-18 13:17 35.056942 -118.152740 268 2794ft 0kts
15-Sep-18 13:18 35.056942 -118.152740 268 2794ft 0kts
15-Sep-18 13:19 35.056942 -118.152740 268 2794ft 0kts

Navigation Log

Ident Type
1. KBFL Airport
2. KMHV Airport